createdAt,value
2016-05-01T00:00:25.215Z,7.15
2016-05-01T00:01:25.234Z,7.1
2016-05-01T00:02:25.267Z,7.1
2016-05-01T00:03:25.145Z,7.17
2016-05-01T00:04:25.335Z,7.15
2016-05-01T00:05:25.823Z,7.14
2016-05-01T00:06:25.389Z,7.17
2016-05-01T00:07:25.421Z,7.14
2016-05-01T00:08:25.456Z,7.18
2016-05-01T00:09:25.318Z,7.11
2016-05-01T00:10:25.508Z,7.14
2016-05-01T00:11:25.230Z,7.14
2016-05-01T00:12:25.560Z,7.14
2016-05-01T00:13:25.594Z,7.13
2016-05-01T00:14:25.628Z,7.15
2016-05-01T00:15:25.505Z,7.1
2016-05-01T00:16:25.696Z,7.11
2016-05-01T00:17:25.715Z,7.06
2016-05-01T00:18:25.748Z,7.07
2016-05-01T00:19:25.766Z,7.1
2016-05-01T00:20:26.676Z,7.06
2016-05-01T00:21:25.834Z,7.1
2016-05-01T00:22:26.024Z,7.13
2016-05-01T00:23:25.901Z,7.18
2016-05-01T00:24:25.920Z,7.05
2016-05-01T00:25:25.954Z,7.05
2016-05-01T00:26:25.973Z,7.03
2016-05-01T00:27:25.866Z,7.05
2016-05-01T00:28:25.884Z,7.14
2016-05-01T00:29:26.075Z,7.07
2016-05-01T00:30:26.109Z,7.06
2016-05-01T00:31:26.128Z,7.06
2016-05-01T00:32:26.005Z,7.13
2016-05-01T00:33:26.195Z,7.03
2016-05-01T00:34:26.214Z,7.03
2016-05-01T00:35:26.841Z,7.1
2016-05-01T00:36:26.281Z,7.03
2016-05-01T00:37:26.314Z,7.1
2016-05-01T00:38:26.317Z,7.11
2016-05-01T00:39:26.367Z,7.07
2016-05-01T00:40:26.402Z,7.02
2016-05-01T00:41:26.279Z,7.15
2016-05-01T00:42:26.453Z,7.13
2016-05-01T00:43:26.331Z,7.07
2016-05-01T00:44:26.505Z,7.06
2016-05-01T00:45:26.540Z,7.18
2016-05-01T00:46:26.573Z,7.11
2016-05-01T00:47:26.592Z,7.03
2016-05-01T00:48:26.641Z,7.07
2016-05-01T00:49:26.659Z,7.07
2016-05-01T00:50:28.006Z,7.06
2016-05-01T00:51:26.571Z,7.05
2016-05-01T00:52:26.762Z,7.02
2016-05-01T00:53:26.780Z,7.02
2016-05-01T00:54:26.798Z,7.02
2016-05-01T00:55:26.848Z,6.97
2016-05-01T00:56:26.866Z,7
2016-05-01T00:57:26.901Z,7.06
2016-05-01T00:58:26.934Z,7.05
2016-05-01T00:59:26.953Z,7.05
2016-05-01T01:00:26.986Z,7.15
2016-05-01T01:01:27.004Z,7.06
2016-05-01T01:02:27.070Z,7.02
2016-05-01T01:03:27.072Z,7.07
2016-05-01T01:04:27.091Z,7.05
2016-05-01T01:05:28.436Z,7
2016-05-01T01:06:27.033Z,7.05
2016-05-01T01:07:27.192Z,6.99
2016-05-01T01:08:27.227Z,7
2016-05-01T01:09:27.104Z,6.97
2016-05-01T01:10:27.278Z,7.02
2016-05-01T01:11:27.313Z,6.97
2016-05-01T01:12:27.330Z,6.95
2016-05-01T01:13:27.225Z,7
2016-05-01T01:14:27.395Z,7.02
2016-05-01T01:15:27.273Z,7.06
2016-05-01T01:16:27.462Z,7.03
2016-05-01T01:17:27.497Z,6.95
2016-05-01T01:18:27.359Z,7.02
2016-05-01T01:19:27.550Z,6.93
2016-05-01T01:20:27.755Z,7.02
2016-05-01T01:21:27.461Z,6.92
2016-05-01T01:22:27.495Z,6.93
2016-05-01T01:23:27.669Z,6.99
2016-05-01T01:24:27.688Z,6.89
2016-05-01T01:25:27.721Z,6.85
2016-05-01T01:26:27.755Z,6.87
2016-05-01T01:27:27.789Z,6.82
2016-05-01T01:28:27.823Z,6.81
2016-05-01T01:29:27.842Z,6.88
2016-05-01T01:30:27.875Z,6.88
2016-05-01T01:31:27.737Z,6.99
2016-05-01T01:32:27.615Z,6.85
2016-05-01T01:33:27.649Z,6.92
2016-05-01T01:34:27.996Z,6.89
2016-05-01T01:35:27.874Z,6.89
2016-05-01T01:36:28.049Z,6.89
2016-05-01T01:37:27.925Z,6.7
2016-05-01T01:38:27.960Z,6.77
2016-05-01T01:39:28.134Z,6.67
2016-05-01T01:40:28.012Z,6.88
2016-05-01T01:41:28.187Z,6.79
2016-05-01T01:42:28.220Z,6.89
2016-05-01T01:43:28.254Z,6.77
2016-05-01T01:44:28.272Z,6.78
2016-05-01T01:45:28.322Z,6.72
2016-05-01T01:46:28.184Z,6.81
2016-05-01T01:47:28.375Z,6.81
2016-05-01T01:48:28.392Z,6.78
2016-05-01T01:49:28.270Z,6.7
2016-05-01T01:50:28.336Z,6.74
2016-05-01T01:51:28.353Z,6.85
2016-05-01T01:52:28.513Z,6.79
2016-05-01T01:53:28.546Z,6.7
2016-05-01T01:54:28.581Z,6.77
2016-05-01T01:55:28.615Z,6.74
2016-05-01T01:56:28.477Z,6.67
2016-05-01T01:57:28.510Z,6.63
2016-05-01T01:58:28.685Z,6.67
2016-05-01T01:59:28.719Z,6.63
2016-05-01T02:00:28.753Z,6.7
2016-05-01T02:01:28.615Z,6.63
2016-05-01T02:02:28.649Z,6.66
2016-05-01T02:03:28.839Z,6.67
2016-05-01T02:04:28.716Z,6.67
2016-05-01T02:05:28.969Z,6.78
2016-05-01T02:06:28.768Z,6.7
2016-05-01T02:07:28.974Z,6.72
2016-05-01T02:08:28.821Z,6.62
2016-05-01T02:09:28.855Z,6.62
2016-05-01T02:10:28.889Z,6.69
2016-05-01T02:11:29.080Z,6.69
2016-05-01T02:12:29.097Z,6.7
2016-05-01T02:13:29.131Z,6.7
2016-05-01T02:14:29.151Z,6.56
2016-05-01T02:15:29.184Z,6.51
2016-05-01T02:16:29.203Z,6.59
2016-05-01T02:17:29.096Z,6.64
2016-05-01T02:18:29.129Z,6.63
2016-05-01T02:19:29.320Z,6.7
2016-05-01T02:20:29.339Z,6.75
2016-05-01T02:21:29.372Z,6.77
2016-05-01T02:22:29.234Z,6.7
2016-05-01T02:23:29.425Z,6.64
2016-05-01T02:24:29.442Z,6.54
2016-05-01T02:25:29.523Z,6.66
2016-05-01T02:26:29.510Z,6.59
2016-05-01T02:27:29.544Z,6.67
2016-05-01T02:28:29.578Z,6.66
2016-05-01T02:29:29.596Z,6.69
2016-05-01T02:30:29.630Z,6.63
2016-05-01T02:31:29.649Z,6.66
2016-05-01T02:32:29.683Z,6.63
2016-05-01T02:33:29.716Z,6.66
2016-05-01T02:34:29.751Z,6.64
2016-05-01T02:35:29.894Z,6.6
2016-05-01T02:36:29.802Z,6.62
2016-05-01T02:37:29.837Z,6.56
2016-05-01T02:38:29.699Z,6.54
2016-05-01T02:39:29.890Z,6.56
2016-05-01T02:40:29.907Z,6.6
2016-05-01T02:41:29.957Z,6.67
2016-05-01T02:42:29.976Z,6.66
2016-05-01T02:43:29.837Z,6.59
2016-05-01T02:44:30.043Z,6.54
2016-05-01T02:45:30.045Z,6.52
2016-05-01T02:46:30.095Z,6.52
2016-05-01T02:47:30.114Z,6.63
2016-05-01T02:48:30.147Z,6.64
2016-05-01T02:49:30.197Z,6.63
2016-05-01T02:50:30.528Z,6.64
2016-05-01T02:51:30.234Z,6.64
2016-05-01T02:52:30.268Z,6.75
2016-05-01T02:53:30.302Z,6.72
2016-05-01T02:54:30.164Z,6.78
2016-05-01T02:55:30.213Z,6.7
2016-05-01T02:56:30.389Z,6.74
2016-05-01T02:57:30.406Z,6.69
2016-05-01T02:58:30.284Z,6.78
2016-05-01T02:59:30.318Z,6.7
2016-05-01T03:00:30.336Z,6.79
2016-05-01T03:01:30.542Z,6.79
2016-05-01T03:02:30.404Z,6.81
2016-05-01T03:03:30.266Z,6.72
2016-05-01T03:04:30.456Z,6.67
2016-05-01T03:05:30.646Z,6.66
2016-05-01T03:06:30.524Z,6.77
2016-05-01T03:07:30.698Z,6.75
2016-05-01T03:08:30.576Z,6.81
2016-05-01T03:09:30.766Z,6.78
2016-05-01T03:10:30.801Z,6.79
2016-05-01T03:11:30.835Z,6.87
2016-05-01T03:12:30.697Z,6.89
2016-05-01T03:13:30.886Z,6.78
2016-05-01T03:14:30.749Z,6.75
2016-05-01T03:15:30.954Z,6.78
2016-05-01T03:16:30.957Z,6.69
2016-05-01T03:17:31.007Z,6.77
2016-05-01T03:18:31.025Z,6.87
2016-05-01T03:19:31.059Z,6.79
2016-05-01T03:20:31.093Z,6.88
2016-05-01T03:21:31.111Z,6.81
2016-05-01T03:22:31.145Z,6.79
2016-05-01T03:23:31.179Z,6.78
2016-05-01T03:24:31.197Z,6.78
2016-05-01T03:25:31.231Z,6.84
2016-05-01T03:26:31.266Z,6.77
2016-05-01T03:27:31.144Z,6.81
2016-05-01T03:28:31.317Z,6.75
2016-05-01T03:29:31.352Z,6.81
2016-05-01T03:30:31.386Z,6.81
2016-05-01T03:31:31.405Z,6.84
2016-05-01T03:32:31.282Z,6.84
2016-05-01T03:33:31.472Z,6.77
2016-05-01T03:34:31.350Z,6.79
2016-05-01T03:35:32.586Z,6.75
2016-05-01T03:36:31.418Z,6.78
2016-05-01T03:37:31.436Z,6.7
2016-05-01T03:38:31.626Z,6.66
2016-05-01T03:39:31.332Z,6.7
2016-05-01T03:40:31.679Z,6.69
2016-05-01T03:41:31.556Z,6.69
2016-05-01T03:42:31.730Z,6.74
2016-05-01T03:43:31.749Z,6.78
2016-05-01T03:44:31.798Z,6.84
2016-05-01T03:45:31.676Z,6.72
2016-05-01T03:46:31.851Z,6.72
2016-05-01T03:47:31.884Z,6.78
2016-05-01T03:48:31.903Z,6.69
2016-05-01T03:49:31.936Z,6.67
2016-05-01T03:50:31.908Z,6.69
2016-05-01T03:51:31.848Z,6.67
2016-05-01T03:52:32.023Z,6.74
2016-05-01T03:53:31.901Z,6.72
2016-05-01T03:54:32.092Z,6.79
2016-05-01T03:55:32.109Z,6.82
2016-05-01T03:56:32.128Z,6.88
2016-05-01T03:57:32.021Z,6.81
2016-05-01T03:58:32.211Z,6.79
2016-05-01T03:59:32.230Z,6.75
2016-05-01T04:00:32.247Z,6.88
2016-05-01T04:01:32.297Z,6.87
2016-05-01T04:02:32.316Z,6.87
2016-05-01T04:03:32.349Z,6.82
2016-05-01T04:04:32.383Z,6.87
2016-05-01T04:05:32.416Z,6.72
2016-05-01T04:06:32.419Z,6.7
2016-05-01T04:07:32.313Z,6.69
2016-05-01T04:08:32.488Z,6.72
2016-05-01T04:09:32.506Z,6.67
2016-05-01T04:10:32.399Z,6.7
2016-05-01T04:11:32.590Z,6.74
2016-05-01T04:12:32.452Z,6.77
2016-05-01T04:13:32.627Z,6.67
2016-05-01T04:14:32.676Z,6.77
2016-05-01T04:15:32.538Z,6.78
2016-05-01T04:16:32.728Z,6.77
2016-05-01T04:17:32.762Z,6.67
2016-05-01T04:18:32.781Z,6.69
2016-05-01T04:19:32.658Z,6.69
2016-05-01T04:20:32.848Z,6.78
2016-05-01T04:21:32.882Z,6.66
2016-05-01T04:22:32.916Z,6.7
2016-05-01T04:23:32.934Z,6.62
2016-05-01T04:24:32.811Z,6.62
2016-05-01T04:25:33.002Z,6.67
2016-05-01T04:26:33.005Z,6.7
2016-05-01T04:27:32.883Z,6.7
2016-05-01T04:28:33.073Z,6.7
2016-05-01T04:29:33.107Z,6.66
2016-05-01T04:30:33.125Z,6.59
2016-05-01T04:31:33.003Z,6.6
2016-05-01T04:32:33.194Z,6.57
2016-05-01T04:33:33.211Z,6.57
2016-05-01T04:34:33.261Z,6.62
2016-05-01T04:35:33.280Z,6.74
2016-05-01T04:36:33.313Z,6.72
2016-05-01T04:37:33.332Z,6.69
2016-05-01T04:38:33.209Z,6.7
2016-05-01T04:39:33.087Z,6.84
2016-05-01T04:40:33.277Z,6.82
2016-05-01T04:41:33.310Z,6.87
2016-05-01T04:42:33.485Z,6.95
2016-05-01T04:43:33.519Z,6.87
2016-05-01T04:44:33.537Z,6.88
2016-05-01T04:45:33.571Z,6.77
2016-05-01T04:46:33.606Z,6.87
2016-05-01T04:47:33.640Z,6.84
2016-05-01T04:48:33.658Z,6.72
2016-05-01T04:49:33.677Z,6.69
2016-05-01T04:50:33.787Z,6.66
2016-05-01T04:51:33.745Z,6.78
2016-05-01T04:52:33.778Z,6.84
2016-05-01T04:53:33.812Z,6.82
2016-05-01T04:54:33.690Z,6.74
2016-05-01T04:55:33.864Z,6.89
2016-05-01T04:56:33.726Z,6.84
2016-05-01T04:57:33.931Z,6.89
2016-05-01T04:58:33.794Z,6.87
2016-05-01T04:59:33.984Z,6.84
2016-05-01T05:00:33.861Z,6.84
2016-05-01T05:01:34.052Z,6.87
2016-05-01T05:02:33.899Z,6.88
2016-05-01T05:03:34.089Z,6.7
2016-05-01T05:04:33.983Z,6.72
2016-05-01T05:05:34.000Z,6.66
2016-05-01T05:06:34.191Z,6.77
2016-05-01T05:07:34.053Z,6.84
2016-05-01T05:08:34.244Z,6.77
2016-05-01T05:09:34.105Z,6.79
2016-05-01T05:10:34.296Z,6.72
2016-05-01T05:11:34.173Z,6.67
2016-05-01T05:12:34.363Z,6.72
2016-05-01T05:13:34.382Z,6.82
2016-05-01T05:14:34.259Z,6.92
2016-05-01T05:15:34.465Z,6.87
2016-05-01T05:16:34.468Z,6.79
2016-05-01T05:17:34.360Z,6.85
2016-05-01T05:18:34.535Z,6.87
2016-05-01T05:19:34.569Z,6.85
2016-05-01T05:20:34.478Z,6.99
2016-05-01T05:21:34.309Z,6.92
2016-05-01T05:22:34.656Z,6.99
2016-05-01T05:23:34.674Z,6.93
2016-05-01T05:24:34.552Z,6.96
2016-05-01T05:25:34.741Z,6.96
2016-05-01T05:26:34.776Z,7.07
2016-05-01T05:27:34.810Z,7.02
2016-05-01T05:28:34.828Z,7.1
2016-05-01T05:29:34.847Z,7.06
2016-05-01T05:30:34.880Z,7.1
2016-05-01T05:31:34.914Z,7.06
2016-05-01T05:32:34.948Z,7.02
2016-05-01T05:33:34.966Z,7.1
2016-05-01T05:34:35.016Z,7.11
2016-05-01T05:35:35.034Z,7.11
2016-05-01T05:36:35.068Z,7.2
2016-05-01T05:37:35.087Z,7.05
2016-05-01T05:38:35.105Z,6.97
2016-05-01T05:39:35.138Z,7
2016-05-01T05:40:35.172Z,7.03
2016-05-01T05:41:35.222Z,7.06
2016-05-01T05:42:35.224Z,7.14
2016-05-01T05:43:35.260Z,7.13
2016-05-01T05:44:35.293Z,7.14
2016-05-01T05:45:35.030Z,7.23
2016-05-01T05:46:35.361Z,7.25
2016-05-01T05:47:35.379Z,7.31
2016-05-01T05:48:35.413Z,7.25
2016-05-01T05:49:35.276Z,7.29
2016-05-01T05:50:35.341Z,7.25
2016-05-01T05:51:35.343Z,7.33
2016-05-01T05:52:35.534Z,7.2
2016-05-01T05:53:35.567Z,7.35
2016-05-01T05:54:35.289Z,7.25
2016-05-01T05:55:35.651Z,7.23
2016-05-01T05:56:35.653Z,7.33
2016-05-01T05:57:35.672Z,7.51
2016-05-01T05:58:35.564Z,7.5
2016-05-01T05:59:35.723Z,7.56
2016-05-01T06:00:35.773Z,7.57
2016-05-01T06:01:35.650Z,7.56
2016-05-01T06:02:35.810Z,7.47
2016-05-01T06:03:35.859Z,7.58
2016-05-01T06:04:35.878Z,7.6
2016-05-01T06:05:35.944Z,7.56
2016-05-01T06:06:35.946Z,7.54
2016-05-01T06:07:35.963Z,7.6
2016-05-01T06:08:35.998Z,7.53
2016-05-01T06:09:36.033Z,7.48
2016-05-01T06:10:36.082Z,7.57
2016-05-01T06:11:36.099Z,7.7
2016-05-01T06:12:36.169Z,7.75
2016-05-01T06:13:36.184Z,7.77
2016-05-01T06:14:36.172Z,7.88
2016-05-01T06:15:36.205Z,7.8
2016-05-01T06:16:36.255Z,7.77
2016-05-01T06:17:36.257Z,7.6
2016-05-01T06:18:36.291Z,7.67
2016-05-01T06:19:36.325Z,7.82
2016-05-01T06:20:36.531Z,7.87
2016-05-01T06:21:36.393Z,7.79
2016-05-01T06:22:36.427Z,7.75
2016-05-01T06:23:36.446Z,7.66
2016-05-01T06:24:36.480Z,7.85
2016-05-01T06:25:36.498Z,7.87
2016-05-01T06:26:36.532Z,7.82
2016-05-01T06:27:36.581Z,7.9
2016-05-01T06:28:36.287Z,8.05
2016-05-01T06:29:36.634Z,8.1
2016-05-01T06:30:36.667Z,8.08
2016-05-01T06:31:36.686Z,8.15
2016-05-01T06:32:36.720Z,8.15
2016-05-01T06:33:36.628Z,8
2016-05-01T06:34:36.773Z,7.91
2016-05-01T06:35:36.821Z,7.72
2016-05-01T06:36:36.840Z,7.83
2016-05-01T06:37:36.874Z,7.87
2016-05-01T06:38:36.892Z,7.98
2016-05-01T06:39:36.786Z,8.1
2016-05-01T06:40:36.960Z,8.19
2016-05-01T06:41:36.995Z,8.18
2016-05-01T06:42:37.028Z,8.2
2016-05-01T06:43:37.047Z,8.41
2016-05-01T06:44:37.080Z,8.42
2016-05-01T06:45:36.973Z,8.55
2016-05-01T06:46:37.133Z,8.51
2016-05-01T06:47:37.025Z,8.53
2016-05-01T06:48:37.216Z,8.34
2016-05-01T06:49:37.078Z,8.27
2016-05-01T06:50:37.344Z,8.28
2016-05-01T06:51:37.356Z,8.42
2016-05-01T06:52:37.449Z,8.56
2016-05-01T06:53:37.557Z,8.36
2016-05-01T06:54:37.430Z,8.24
2016-05-01T06:55:37.661Z,8.15
2016-05-01T06:56:37.695Z,8.24
2016-05-01T06:57:37.744Z,8.3
2016-05-01T06:58:37.777Z,8.26
2016-05-01T06:59:37.671Z,8.37
2016-05-01T07:00:37.869Z,8.51
2016-05-01T07:01:37.909Z,8.49
2016-05-01T07:02:37.776Z,8.66
2016-05-01T07:03:37.972Z,8.51
2016-05-01T07:04:37.855Z,8.53
2016-05-01T07:05:38.064Z,8.55
2016-05-01T07:06:38.084Z,8.55
2016-05-01T07:07:38.120Z,8.6
2016-05-01T07:08:38.156Z,8.55
2016-05-01T07:09:38.176Z,8.74
2016-05-01T07:10:38.337Z,8.85
2016-05-01T07:11:38.261Z,8.88
2016-05-01T07:12:38.282Z,8.91
2016-05-01T07:13:38.299Z,8.7
2016-05-01T07:14:38.350Z,8.52
2016-05-01T07:15:38.369Z,8.58
2016-05-01T07:16:38.404Z,8.51
2016-05-01T07:17:38.437Z,8.66
2016-05-01T07:18:38.316Z,8.63
2016-05-01T07:19:38.506Z,8.53
2016-05-01T07:20:38.697Z,8.67
2016-05-01T07:21:38.402Z,8.7
2016-05-01T07:22:38.593Z,8.63
2016-05-01T07:23:38.471Z,8.84
2016-05-01T07:24:38.645Z,8.63
2016-05-01T07:25:38.679Z,8.61
2016-05-01T07:26:38.712Z,8.64
2016-05-01T07:27:38.747Z,8.63
2016-05-01T07:28:38.781Z,8.69
2016-05-01T07:29:38.815Z,8.87
2016-05-01T07:30:38.692Z,8.91
2016-05-01T07:31:38.867Z,8.73
2016-05-01T07:32:38.901Z,8.78
2016-05-01T07:33:38.935Z,8.84
2016-05-01T07:34:38.969Z,8.99
2016-05-01T07:35:38.878Z,9.31
2016-05-01T07:36:38.880Z,9.51
2016-05-01T07:37:39.071Z,9.47
2016-05-01T07:38:39.089Z,9.59
2016-05-01T07:39:38.982Z,9.91
2016-05-01T07:40:39.157Z,9.72
2016-05-01T07:41:39.191Z,9.82
2016-05-01T07:42:39.225Z,10.01
2016-05-01T07:43:39.258Z,9.91
2016-05-01T07:44:39.277Z,9.79
2016-05-01T07:45:39.311Z,9.69
2016-05-01T07:46:39.361Z,9.51
2016-05-01T07:47:39.066Z,9.4
2016-05-01T07:48:39.257Z,9.61
2016-05-01T07:49:39.462Z,9.61
2016-05-01T07:50:39.324Z,9.66
2016-05-01T07:51:39.515Z,9.84
2016-05-01T07:52:39.548Z,10.04
2016-05-01T07:53:39.582Z,9.76
2016-05-01T07:54:39.616Z,9.87
2016-05-01T07:55:39.666Z,10.13
2016-05-01T07:56:39.668Z,10.59
2016-05-01T07:57:39.562Z,11.07
2016-05-01T07:58:39.581Z,11.87
2016-05-01T07:59:40.005Z,12.61
2016-05-01T08:00:39.820Z,13.5
2016-05-01T08:01:39.839Z,14.32
2016-05-01T08:02:39.872Z,14.36
2016-05-01T08:03:39.750Z,13.05
2016-05-01T08:04:39.939Z,13.01
2016-05-01T08:05:39.975Z,13.16
2016-05-01T08:06:39.852Z,13.35
2016-05-01T08:07:40.041Z,13.3
2016-05-01T08:08:40.076Z,13.68
2016-05-01T08:09:40.126Z,13.78
2016-05-01T08:10:39.847Z,13.53
2016-05-01T08:11:40.194Z,13.52
2016-05-01T08:12:40.227Z,14.07
2016-05-01T08:13:40.246Z,14.28
2016-05-01T08:14:40.310Z,14.68
2016-05-01T08:15:40.329Z,14.28
2016-05-01T08:16:40.222Z,13.7
2016-05-01T08:17:40.397Z,12.86
2016-05-01T08:18:40.446Z,13.59
2016-05-01T08:19:40.324Z,13.87
2016-05-01T08:20:40.530Z,14.45
2016-05-01T08:21:40.549Z,14.7
2016-05-01T08:22:40.599Z,15.04
2016-05-01T08:23:40.632Z,14.86
2016-05-01T08:24:40.665Z,14.73
2016-05-01T08:25:40.699Z,14.07
2016-05-01T08:26:40.734Z,13.9
2016-05-01T08:27:40.798Z,13.72
2016-05-01T08:28:40.818Z,13.3
2016-05-01T08:29:40.852Z,12.79
2016-05-01T08:30:40.901Z,12.46
2016-05-01T08:31:40.934Z,12.62
2016-05-01T08:32:40.985Z,13.05
2016-05-01T08:33:41.018Z,13.15
2016-05-01T08:34:41.053Z,13.28
2016-05-01T08:35:40.943Z,13.75
2016-05-01T08:36:41.134Z,14.25
2016-05-01T08:37:41.011Z,14.2
2016-05-01T08:38:41.201Z,14.66
2016-05-01T08:39:41.251Z,15
2016-05-01T08:40:41.269Z,14.99
2016-05-01T08:41:41.318Z,14.6
2016-05-01T08:42:41.353Z,14.23
2016-05-01T08:43:41.386Z,14.65
2016-05-01T08:44:41.435Z,14.11
2016-05-01T08:45:41.469Z,13.87
2016-05-01T08:46:41.519Z,13.79
2016-05-01T08:47:41.381Z,13.75
2016-05-01T08:48:41.588Z,14.11
2016-05-01T08:49:41.621Z,14.07
2016-05-01T08:50:41.889Z,14.1
2016-05-01T08:51:41.704Z,13.87
2016-05-01T08:52:41.582Z,14.04
2016-05-01T08:53:41.632Z,13.89
2016-05-01T08:54:41.821Z,13.85
2016-05-01T08:55:41.857Z,13.67
2016-05-01T08:56:41.890Z,13.5
2016-05-01T08:57:41.954Z,12.8
2016-05-01T08:58:41.974Z,12.93
2016-05-01T08:59:42.023Z,12.8
2016-05-01T09:00:42.041Z,12.68
2016-05-01T09:01:42.091Z,12.7
2016-05-01T09:02:42.125Z,12.55
2016-05-01T09:03:42.173Z,12.06
2016-05-01T09:04:42.209Z,11.87
2016-05-01T09:05:42.745Z,11.66
2016-05-01T09:06:42.276Z,11.69
2016-05-01T09:07:42.326Z,12.04
2016-05-01T09:08:42.219Z,11.9
2016-05-01T09:09:42.394Z,11.95
2016-05-01T09:10:42.442Z,12.1
2016-05-01T09:11:42.305Z,12.53
2016-05-01T09:12:42.339Z,12.8
2016-05-01T09:13:42.530Z,12.76
2016-05-01T09:14:42.578Z,12.78
2016-05-01T09:15:42.613Z,13.47
2016-05-01T09:16:42.631Z,13.47
2016-05-01T09:17:42.525Z,13.52
2016-05-01T09:18:42.714Z,13.27
2016-05-01T09:19:42.749Z,13.42
2016-05-01T09:20:42.470Z,13.18
2016-05-01T09:21:42.817Z,13.65
2016-05-01T09:22:42.882Z,14.03
2016-05-01T09:23:42.904Z,14.48
2016-05-01T09:24:42.938Z,15.1
2016-05-01T09:25:42.988Z,13.99
2016-05-01T09:26:42.990Z,13.89
2016-05-01T09:27:42.885Z,13.78
2016-05-01T09:28:42.965Z,13.96
2016-05-01T09:29:43.109Z,14.5
2016-05-01T09:30:43.159Z,13.92
2016-05-01T09:31:43.192Z,13.83
2016-05-01T09:32:43.241Z,13.63
2016-05-01T09:33:43.260Z,13.56
2016-05-01T09:34:43.309Z,13.72
2016-05-01T09:35:43.828Z,13.89
2016-05-01T09:36:43.221Z,14.05
2016-05-01T09:37:43.412Z,14.47
2016-05-01T09:38:43.461Z,14.59
2016-05-01T09:39:43.339Z,14.88
2016-05-01T09:40:43.528Z,15.25
2016-05-01T09:41:43.563Z,14.53
2016-05-01T09:42:43.596Z,14.62
2016-05-01T09:43:43.647Z,15.07
2016-05-01T09:44:43.697Z,15.46
2016-05-01T09:45:43.574Z,15.82
2016-05-01T09:46:43.608Z,15.75
2016-05-01T09:47:43.813Z,15.55
2016-05-01T09:48:43.863Z,15.52
2016-05-01T09:49:43.881Z,15.68
2016-05-01T09:50:44.571Z,15.7
2016-05-01T09:51:43.965Z,15.29
2016-05-01T09:52:43.686Z,14.54
2016-05-01T09:53:44.033Z,14.15
2016-05-01T09:54:44.082Z,14.26
2016-05-01T09:55:44.115Z,13.75
2016-05-01T09:56:44.010Z,13.79
2016-05-01T09:57:44.043Z,13.92
2016-05-01T09:58:44.092Z,13.71
2016-05-01T09:59:44.283Z,14.04
2016-05-01T10:00:44.318Z,14.22
2016-05-01T10:01:44.351Z,14.48
2016-05-01T10:02:44.401Z,14.66
2016-05-01T10:03:44.450Z,14.6
2016-05-01T10:04:44.500Z,14.15
2016-05-01T10:05:44.862Z,14.3
2016-05-01T10:06:44.567Z,14.48
2016-05-01T10:07:44.602Z,14.72
2016-05-01T10:08:44.651Z,15
2016-05-01T10:09:44.684Z,15.19
2016-05-01T10:10:44.719Z,15.33
2016-05-01T10:11:44.769Z,14.94
2016-05-01T10:12:44.647Z,14.82
2016-05-01T10:13:44.695Z,14.2
2016-05-01T10:14:44.885Z,14.68
2016-05-01T10:15:44.936Z,15.19
2016-05-01T10:16:44.970Z,15.43
2016-05-01T10:17:45.003Z,15.43
2016-05-01T10:18:44.897Z,15.7
2016-05-01T10:19:45.086Z,15.35
2016-05-01T10:20:45.418Z,15.42
2016-05-01T10:21:45.171Z,15.97
2016-05-01T10:22:45.220Z,15.97
2016-05-01T10:23:45.255Z,16.05
2016-05-01T10:24:45.132Z,15.72
2016-05-01T10:25:45.322Z,15.79
2016-05-01T10:26:45.371Z,16.24
2016-05-01T10:27:45.421Z,15.77
2016-05-01T10:28:45.314Z,15.33
2016-05-01T10:29:45.504Z,15.39
2016-05-01T10:30:45.382Z,15.7
2016-05-01T10:31:45.588Z,15.17
2016-05-01T10:32:45.466Z,15.4
2016-05-01T10:33:45.531Z,15.58
2016-05-01T10:34:45.721Z,16.23
2016-05-01T10:35:45.614Z,16.43
2016-05-01T10:36:45.789Z,16.57
2016-05-01T10:37:45.822Z,16.58
2016-05-01T10:38:45.888Z,16.99
2016-05-01T10:39:45.938Z,17.06
2016-05-01T10:40:46.003Z,17.11
2016-05-01T10:41:45.864Z,17.39
2016-05-01T10:42:46.055Z,17.68
2016-05-01T10:43:46.104Z,17.52
2016-05-01T10:44:46.139Z,17.74
2016-05-01T10:45:46.173Z,17.67
2016-05-01T10:46:46.066Z,17.12
2016-05-01T10:47:46.116Z,17.16
2016-05-01T10:48:46.305Z,16.56
2016-05-01T10:49:46.339Z,16.99
2016-05-01T10:50:46.404Z,17.33
2016-05-01T10:51:46.454Z,17.67
2016-05-01T10:52:46.489Z,17.15
2016-05-01T10:53:46.522Z,16.97
2016-05-01T10:54:46.572Z,17.19
2016-05-01T10:55:46.449Z,17.36
2016-05-01T10:56:46.655Z,17.79
2016-05-01T10:57:46.688Z,17.34
2016-05-01T10:58:46.770Z,17.22
2016-05-01T10:59:46.804Z,17.41
2016-05-01T11:00:46.837Z,17.38
2016-05-01T11:01:46.731Z,16.83
2016-05-01T11:02:46.921Z,17.27
2016-05-01T11:03:46.815Z,17.68
2016-05-01T11:04:47.020Z,17.9
2016-05-01T11:05:47.070Z,17.22
2016-05-01T11:06:47.104Z,16.41
2016-05-01T11:07:47.153Z,16.08
2016-05-01T11:08:47.187Z,15.97
2016-05-01T11:09:46.925Z,16.05
2016-05-01T11:10:47.286Z,15.7
2016-05-01T11:11:47.320Z,16.57
2016-05-01T11:12:47.370Z,17.3
2016-05-01T11:13:47.420Z,17.9
2016-05-01T11:14:47.469Z,17.08
2016-05-01T11:15:47.503Z,16.58
2016-05-01T11:16:47.569Z,16.56
2016-05-01T11:17:47.602Z,16.31
2016-05-01T11:18:47.636Z,16.24
2016-05-01T11:19:47.686Z,15.37
2016-05-01T11:20:48.330Z,15.55
2016-05-01T11:21:47.457Z,15.59
2016-05-01T11:22:47.835Z,16.35
2016-05-01T11:23:47.853Z,16.28
2016-05-01T11:24:47.902Z,16.71
2016-05-01T11:25:47.952Z,17.38
2016-05-01T11:26:47.986Z,17.63
2016-05-01T11:27:47.926Z,17.74
2016-05-01T11:28:47.929Z,17.87
2016-05-01T11:29:48.135Z,17.94
2016-05-01T11:30:48.169Z,18.28
2016-05-01T11:31:48.202Z,18.19
2016-05-01T11:32:48.252Z,18.47
2016-05-01T11:33:48.317Z,18.75
2016-05-01T11:34:48.351Z,18.9
2016-05-01T11:35:48.323Z,19.04
2016-05-01T11:36:48.435Z,19.31
2016-05-01T11:37:48.484Z,19.36
2016-05-01T11:38:48.534Z,19.12
2016-05-01T11:39:48.568Z,18.71
2016-05-01T11:40:48.617Z,18.81
2016-05-01T11:41:48.511Z,18.89
2016-05-01T11:42:48.732Z,18.41
2016-05-01T11:43:48.766Z,18.2
2016-05-01T11:44:48.659Z,17.68
2016-05-01T11:45:48.849Z,16.99
2016-05-01T11:46:48.899Z,17.38
2016-05-01T11:47:48.948Z,17.56
2016-05-01T11:48:48.998Z,17.76
2016-05-01T11:49:48.719Z,17.68
2016-05-01T11:50:48.942Z,18.1
2016-05-01T11:51:49.131Z,18.26
2016-05-01T11:52:49.196Z,18.52
2016-05-01T11:53:49.231Z,17.94
2016-05-01T11:54:49.280Z,18.37
2016-05-01T11:55:49.330Z,18.53
2016-05-01T11:56:49.207Z,18.66
2016-05-01T11:57:49.413Z,19
2016-05-01T11:58:49.307Z,18.22
2016-05-01T11:59:49.512Z,18.15
2016-05-01T12:00:49.562Z,18.38
2016-05-01T12:01:49.611Z,18.45
2016-05-01T12:02:49.660Z,18.77
2016-05-01T12:03:49.710Z,18.62
2016-05-01T12:04:49.744Z,19.16
2016-05-01T12:05:50.887Z,18.66
2016-05-01T12:06:49.843Z,18.53
2016-05-01T12:07:49.892Z,17.94
2016-05-01T12:08:49.771Z,17.86
2016-05-01T12:09:49.977Z,17.76
2016-05-01T12:10:50.026Z,17.82
2016-05-01T12:11:50.076Z,17.57
2016-05-01T12:12:50.109Z,17.67
2016-05-01T12:13:50.159Z,16.79
2016-05-01T12:14:50.209Z,16.71
2016-05-01T12:15:50.258Z,17.14
2016-05-01T12:16:50.308Z,17.54
2016-05-01T12:17:50.185Z,17.38
2016-05-01T12:18:50.391Z,17.42
2016-05-01T12:19:50.441Z,17.52
2016-05-01T12:20:50.334Z,17.24
2016-05-01T12:21:50.540Z,16.93
2016-05-01T12:22:50.434Z,16.54
2016-05-01T12:23:50.624Z,16.78
2016-05-01T12:24:50.672Z,17.44
2016-05-01T12:25:50.707Z,17.78
2016-05-01T12:26:50.772Z,17.92
2016-05-01T12:27:50.822Z,18.22
2016-05-01T12:28:50.855Z,17.11
2016-05-01T12:29:50.765Z,17.27
2016-05-01T12:30:50.954Z,16.75
2016-05-01T12:31:50.989Z,16.74
2016-05-01T12:32:51.054Z,17.08
2016-05-01T12:33:51.088Z,16.99
2016-05-01T12:34:51.138Z,17.19
2016-05-01T12:35:51.359Z,17.23
2016-05-01T12:36:51.221Z,17.44
2016-05-01T12:37:51.145Z,17.67
2016-05-01T12:38:51.320Z,17.59
2016-05-01T12:39:51.370Z,17.15
2016-05-01T12:40:51.404Z,16.56
2016-05-01T12:41:51.297Z,16.05
2016-05-01T12:42:51.503Z,15.39
2016-05-01T12:43:51.553Z,15.22
2016-05-01T12:44:51.601Z,16.01
2016-05-01T12:45:51.636Z,16.71
2016-05-01T12:46:51.528Z,17.31
2016-05-01T12:47:51.734Z,17.8
2016-05-01T12:48:51.785Z,18.1
2016-05-01T12:49:51.834Z,18.4
2016-05-01T12:50:53.386Z,18.71
2016-05-01T12:51:51.902Z,18.58
2016-05-01T12:52:51.795Z,18.8
2016-05-01T12:53:52.000Z,18.55
2016-05-01T12:54:51.894Z,18.23
2016-05-01T12:55:51.928Z,18.28
2016-05-01T12:56:52.134Z,18.43
2016-05-01T12:57:52.184Z,18.5
2016-05-01T12:58:52.077Z,18.4
2016-05-01T12:59:52.266Z,18.6
2016-05-01T13:00:52.301Z,18.98
2016-05-01T13:01:52.351Z,19.26
2016-05-01T13:02:52.400Z,19.47
2016-05-01T13:03:52.294Z,19.58
2016-05-01T13:04:52.499Z,19.27
2016-05-01T13:05:52.924Z,18.18
2016-05-01T13:06:52.443Z,17.71
2016-05-01T13:07:52.648Z,17.67
2016-05-01T13:08:52.682Z,17.57
2016-05-01T13:09:52.731Z,17.74
2016-05-01T13:10:52.609Z,17.41
2016-05-01T13:11:52.674Z,17.34